Darstellungsparameter: Aktuell verwendete Einstellungen:
Skalierung der Graphiken ... ?
xyx+y,   Skalierungsfaktor:      Skalierung: Modus: x, Faktor: 1
Darstellungszeitraum ... ?
Vom - - bis: - -   Zeitraum: 04.06.2019 - 05.06.2019
Min/Max/Avg-Anzeige ... ?
Zeige MMA aktuell
Zeige MMA Monat
Zeige MMA alles
Zeige --A aktuell
Zeige --A Monat
Zeige --A alles
Keine MMA-Anzeige
MMA:
Keine MMA-Graphiken
MMA-Basis: 04.06.2019 - 05.06.2019
Quicknavigation für Darstellung... ?
Tage:      1T, 2T, 3T, 5T -1T -2T -3T -5T +1T +2T +3T +5T
Wochen: 1W, 2W, 3W -1W -2W -3W +1W +2W +3W
Monate: 1M, 3M, 6M -1M -3M -6M +1M +3M +6M
Jahre:    1J, 3J, 5J, 10J -1J -3J -5J -10J +1J +3J +5J +10J
Nutze für die Darstellung ... ?
Originaldaten oder Mittelwerte auf ...
Stundenbasis Tagesbasis Wochenbasis
Monatsbasis Jahresbasis      Datenbasis: Original-Daten
Darstellen als:
Statistik (Auto) Statistik J:M      Darstellung:
Zur Graphik,    zurück zur Übersicht aller Sensoren.
 
Tabellarische Datenbersicht: ?
 
Sensor: Nr:Datum:Temp:Feuchte:Taupunkt:
Aussen-T/F 1 04-06-2019 00:00:00 17.3 C 84 % 14.57 C
2 04-06-2019 00:05:00 17.2 C 85 % 14.66 C
3 04-06-2019 00:10:00 17.1 C 85 % 14.56 C
4 04-06-2019 00:15:00 16.9 C 86 % 14.54 C
5 04-06-2019 00:20:00 16.8 C 86 % 14.45 C
6 04-06-2019 00:25:00 16.7 C 86 % 14.35 C
7 04-06-2019 00:30:00 16.6 C 87 % 14.43 C
8 04-06-2019 00:35:00 16.6 C 87 % 14.43 C
9 04-06-2019 00:40:00 16.4 C 88 % 14.41 C
10 04-06-2019 00:45:00 16.4 C 88 % 14.41 C
11 04-06-2019 00:50:00 16.3 C 88 % 14.31 C
12 04-06-2019 00:55:00 16.3 C 88 % 14.31 C
13 04-06-2019 01:00:00 16.2 C 89 % 14.39 C
14 04-06-2019 01:05:00 16.2 C 89 % 14.39 C
15 04-06-2019 01:10:00 16.1 C 89 % 14.29 C
16 04-06-2019 01:15:00 16.1 C 89 % 14.29 C
17 04-06-2019 01:20:00 15.9 C 89 % 14.09 C
18 04-06-2019 01:25:00 15.8 C 90 % 14.16 C
19 04-06-2019 01:30:00 15.8 C 90 % 14.16 C
20 04-06-2019 01:35:00 15.7 C 90 % 14.06 C
21 04-06-2019 01:40:00 15.7 C 90 % 14.06 C
22 04-06-2019 01:45:00 15.6 C 90 % 13.97 C
23 04-06-2019 01:50:00 15.5 C 91 % 14.04 C
24 04-06-2019 01:55:00 15.5 C 91 % 14.04 C
25 04-06-2019 02:00:00 15.4 C 91 % 13.94 C
Sensor: Nr:Datum:Temp:Feuchte:Taupunkt:
Aussen-T/F 26 04-06-2019 02:05:00 15.4 C 91 % 13.94 C
27 04-06-2019 02:10:00 15.3 C 92 % 14.01 C
28 04-06-2019 02:15:00 15.3 C 92 % 14.01 C
29 04-06-2019 02:20:00 15.3 C 92 % 14.01 C
30 04-06-2019 02:25:00 15.2 C 92 % 13.91 C
31 04-06-2019 02:30:00 15.1 C 92 % 13.81 C
32 04-06-2019 02:35:00 15.1 C 92 % 13.81 C
33 04-06-2019 02:40:00 15.1 C 92 % 13.81 C
34 04-06-2019 02:45:00 14.9 C 92 % 13.61 C
35 04-06-2019 02:50:00 14.9 C 92 % 13.61 C
36 04-06-2019 02:55:00 14.8 C 92 % 13.51 C
37 04-06-2019 03:00:00 14.8 C 93 % 13.68 C
38 04-06-2019 03:05:00 14.7 C 93 % 13.58 C
39 04-06-2019 03:10:00 14.6 C 92 % 13.32 C
40 04-06-2019 03:15:00 14.6 C 93 % 13.48 C
41 04-06-2019 03:20:00 14.5 C 93 % 13.38 C
42 04-06-2019 03:25:00 14.4 C 93 % 13.28 C
43 04-06-2019 03:30:00 14.4 C 93 % 13.28 C
44 04-06-2019 03:35:00 14.3 C 93 % 13.18 C
45 04-06-2019 03:40:00 14.3 C 93 % 13.18 C
46 04-06-2019 03:45:00 14.2 C 93 % 13.08 C
47 04-06-2019 03:50:00 14.1 C 93 % 12.99 C
48 04-06-2019 03:55:00 14.1 C 93 % 12.99 C
49 04-06-2019 04:00:00 14 C 93 % 12.89 C
50 04-06-2019 04:05:00 14 C 93 % 12.89 C
Sensor: Nr:Datum:Temp:Feuchte:Taupunkt:
Aussen-T/F 51 04-06-2019 04:10:00 13.9 C 93 % 12.79 C
52 04-06-2019 04:15:00 13.9 C 94 % 12.95 C
53 04-06-2019 04:20:00 13.8 C 93 % 12.69 C
54 04-06-2019 04:25:00 13.7 C 94 % 12.75 C
55 04-06-2019 04:30:00 13.6 C 93 % 12.49 C
56 04-06-2019 04:35:00 13.6 C 93 % 12.49 C
57 04-06-2019 04:40:00 13.4 C 94 % 12.45 C
58 04-06-2019 04:45:00 13.4 C 94 % 12.45 C
59 04-06-2019 04:50:00 13.3 C 94 % 12.36 C
60 04-06-2019 04:55:00 13.3 C 94 % 12.36 C
61 04-06-2019 05:00:00 13.3 C 94 % 12.36 C
62 04-06-2019 05:05:00 13.3 C 94 % 12.36 C
63 04-06-2019 05:10:00 13.3 C 94 % 12.36 C
64 04-06-2019 05:15:00 13.3 C 94 % 12.36 C
65 04-06-2019 05:20:00 13.2 C 94 % 12.26 C
66 04-06-2019 05:25:00 13.2 C 94 % 12.26 C
67 04-06-2019 05:30:00 13.1 C 94 % 12.16 C
68 04-06-2019 05:35:00 13.1 C 94 % 12.16 C
69 04-06-2019 05:40:00 13.2 C 95 % 12.42 C
70 04-06-2019 05:45:00 13.2 C 95 % 12.42 C
71 04-06-2019 05:50:00 13.1 C 95 % 12.32 C
72 04-06-2019 05:55:00 13.1 C 94 % 12.16 C
73 04-06-2019 06:00:00 13.1 C 95 % 12.32 C
74 04-06-2019 06:05:00 13.1 C 95 % 12.32 C
75 04-06-2019 06:10:00 13.1 C 95 % 12.32 C
Sensor: Nr:Datum:Temp:Feuchte:Taupunkt:
Aussen-T/F 76 04-06-2019 06:15:00 13.1 C 95 % 12.32 C
77 04-06-2019 06:20:00 13.1 C 95 % 12.32 C
78 04-06-2019 06:25:00 13.2 C 95 % 12.42 C
79 04-06-2019 06:30:00 13.2 C 95 % 12.42 C
80 04-06-2019 06:35:00 13.3 C 95 % 12.52 C
81 04-06-2019 06:40:00 13.3 C 95 % 12.52 C
82 04-06-2019 06:45:00 13.4 C 95 % 12.62 C
83 04-06-2019 06:50:00 13.6 C 96 % 12.97 C
84 04-06-2019 06:55:00 13.8 C 96 % 13.17 C
85 04-06-2019 07:00:00 13.9 C 96 % 13.27 C
86 04-06-2019 07:05:00 14.1 C 96 % 13.47 C
87 04-06-2019 07:10:00 14.2 C 96 % 13.57 C
88 04-06-2019 07:15:00 14.3 C 95 % 13.51 C
89 04-06-2019 07:20:00 14.4 C 95 % 13.61 C
90 04-06-2019 07:25:00 14.4 C 95 % 13.61 C
91 04-06-2019 07:30:00 14.6 C 95 % 13.81 C
92 04-06-2019 07:35:00 14.7 C 95 % 13.91 C
93 04-06-2019 07:40:00 14.8 C 95 % 14.01 C
94 04-06-2019 07:45:00 14.9 C 94 % 13.94 C
95 04-06-2019 07:50:00 14.9 C 94 % 13.94 C
96 04-06-2019 07:55:00 15.1 C 94 % 14.14 C
97 04-06-2019 08:00:00 15.2 C 94 % 14.24 C
98 04-06-2019 08:05:00 15.3 C 93 % 14.18 C
99 04-06-2019 08:10:00 15.5 C 93 % 14.37 C
100 04-06-2019 08:15:00 15.6 C 93 % 14.47 C
Sensor: Nr:Datum:Temp:Feuchte:Taupunkt:
Aussen-T/F 101 04-06-2019 08:20:00 15.8 C 92 % 14.5 C
102 04-06-2019 08:25:00 15.9 C 92 % 14.6 C
103 04-06-2019 08:30:00 16.1 C 91 % 14.63 C
104 04-06-2019 08:35:00 16.3 C 91 % 14.83 C
105 04-06-2019 08:40:00 16.6 C 92 % 15.3 C
106 04-06-2019 08:45:00 16.7 C 91 % 15.22 C
107 04-06-2019 08:50:00 16.8 C 91 % 15.32 C
108 04-06-2019 08:55:00 16.8 C 90 % 15.15 C
109 04-06-2019 09:00:00 16.8 C 90 % 15.15 C
110 04-06-2019 09:05:00 16.8 C 90 % 15.15 C
111 04-06-2019 09:10:00 16.9 C 90 % 15.25 C
112 04-06-2019 09:15:00 17.1 C 90 % 15.45 C
113 04-06-2019 09:20:00 17.2 C 90 % 15.55 C
114 04-06-2019 09:25:00 17.3 C 90 % 15.64 C
115 04-06-2019 09:30:00 17.4 C 89 % 15.57 C
116 04-06-2019 09:35:00 17.6 C 88 % 15.59 C
117 04-06-2019 09:40:00 17.8 C 87 % 15.61 C
118 04-06-2019 09:45:00 17.9 C 87 % 15.71 C
119 04-06-2019 09:50:00 18.2 C 87 % 16 C
120 04-06-2019 09:55:00 18.4 C 86 % 16.02 C
121 04-06-2019 10:00:00 18.6 C 85 % 16.03 C
122 04-06-2019 10:05:00 18.8 C 84 % 16.04 C
123 04-06-2019 10:10:00 19.2 C 83 % 16.24 C
124 04-06-2019 10:15:00 19.6 C 81 % 16.25 C
125 04-06-2019 10:20:00 19.9 C 79 % 16.15 C
Sensor: Nr:Datum:Temp:Feuchte:Taupunkt:
Aussen-T/F 126 04-06-2019 10:25:00 20.2 C 79 % 16.44 C
127 04-06-2019 10:30:00 20.4 C 77 % 16.23 C
128 04-06-2019 10:35:00 20.6 C 77 % 16.43 C
129 04-06-2019 10:40:00 20.9 C 76 % 16.51 C
130 04-06-2019 10:45:00 21.2 C 75 % 16.59 C
131 04-06-2019 10:50:00 21.3 C 75 % 16.69 C
132 04-06-2019 10:55:00 21.3 C 73 % 16.26 C
133 04-06-2019 11:00:00 21.6 C 73 % 16.55 C
134 04-06-2019 11:05:00 21.7 C 72 % 16.43 C
135 04-06-2019 11:10:00 21.8 C 72 % 16.53 C
136 04-06-2019 11:15:00 21.9 C 71 % 16.4 C
137 04-06-2019 11:20:00 22.1 C 71 % 16.6 C
138 04-06-2019 11:25:00 22.2 C 72 % 16.91 C
139 04-06-2019 11:30:00 22.4 C 72 % 17.1 C
140 04-06-2019 11:35:00 22.6 C 70 % 16.85 C
141 04-06-2019 11:40:00 22.8 C 70 % 17.04 C
142 04-06-2019 11:45:00 22.9 C 70 % 17.14 C
143 04-06-2019 11:50:00 23.1 C 70 % 17.33 C
144 04-06-2019 11:55:00 23.2 C 70 % 17.42 C
145 04-06-2019 12:00:00 23.3 C 69 % 17.29 C
146 04-06-2019 12:05:00 23.3 C 69 % 17.29 C
147 04-06-2019 12:10:00 23.3 C 69 % 17.29 C
148 04-06-2019 12:15:00 23.3 C 69 % 17.29 C
149 04-06-2019 12:20:00 23.5 C 69 % 17.48 C
150 04-06-2019 12:25:00 23.7 C 69 % 17.67 C
Sensor: Nr:Datum:Temp:Feuchte:Taupunkt:
Aussen-T/F 151 04-06-2019 12:30:00 24 C 69 % 17.96 C
152 04-06-2019 12:35:00 24.2 C 67 % 17.68 C
153 04-06-2019 12:40:00 24.3 C 68 % 18.01 C
154 04-06-2019 12:45:00 24.4 C 67 % 17.87 C
155 04-06-2019 12:50:00 24.6 C 67 % 18.06 C
156 04-06-2019 12:55:00 24.8 C 66 % 18.01 C
157 04-06-2019 13:00:00 24.9 C 65 % 17.87 C
158 04-06-2019 13:05:00 25.2 C 63 % 17.65 C
159 04-06-2019 13:10:00 25.3 C 63 % 17.75 C
160 04-06-2019 13:15:00 25.5 C 61 % 17.43 C
161 04-06-2019 13:20:00 25.6 C 64 % 18.28 C
162 04-06-2019 13:25:00 25.7 C 59 % 17.09 C
163 04-06-2019 13:30:00 25.8 C 59 % 17.18 C
164 04-06-2019 13:35:00 25.8 C 60 % 17.45 C
165 04-06-2019 13:40:00 25.9 C 59 % 17.27 C
166 04-06-2019 13:45:00 26.2 C 58 % 17.28 C
167 04-06-2019 13:50:00 26.4 C 57 % 17.19 C
168 04-06-2019 13:55:00 26.6 C 57 % 17.38 C
169 04-06-2019 14:00:00 26.7 C 56 % 17.19 C
170 04-06-2019 14:05:00 26.8 C 55 % 17 C
171 04-06-2019 14:10:00 26.9 C 54 % 16.81 C
172 04-06-2019 14:15:00 27.1 C 56 % 17.57 C
173 04-06-2019 14:20:00 27.3 C 56 % 17.75 C
174 04-06-2019 14:25:00 27.4 C 56 % 17.84 C
175 04-06-2019 14:30:00 27.4 C 54 % 17.27 C
Sensor: Nr:Datum:Temp:Feuchte:Taupunkt:
Aussen-T/F 176 04-06-2019 14:35:00 27.5 C 53 % 17.07 C
177 04-06-2019 14:40:00 27.6 C 54 % 17.45 C
178 04-06-2019 14:45:00 27.9 C 55 % 18.02 C
179 04-06-2019 14:50:00 28.1 C 52 % 17.32 C
180 04-06-2019 14:55:00 28.1 C 54 % 17.92 C
181 04-06-2019 15:00:00 28.2 C 54 % 18.01 C
182 04-06-2019 15:05:00 28.3 C 52 % 17.5 C
183 04-06-2019 15:10:00 28.4 C 54 % 18.19 C
184 04-06-2019 15:15:00 28.3 C 52 % 17.5 C
185 04-06-2019 15:20:00 28.4 C 52 % 17.59 C
186 04-06-2019 15:25:00 28.6 C 51 % 17.47 C
187 04-06-2019 15:30:00 28.7 C 51 % 17.56 C
188 04-06-2019 15:35:00 28.8 C 55 % 18.86 C
189 04-06-2019 15:40:00 29.2 C 53 % 18.63 C
190 04-06-2019 15:45:00 29.2 C 50 % 17.71 C
191 04-06-2019 15:50:00 29.1 C 51 % 17.93 C
192 04-06-2019 15:55:00 29.2 C 52 % 18.33 C
193 04-06-2019 16:00:00 29.4 C 54 % 19.12 C
194 04-06-2019 16:05:00 29.8 C 54 % 19.49 C
195 04-06-2019 16:10:00 30.3 C 50 % 18.71 C
196 04-06-2019 16:15:00 30.4 C 50 % 18.8 C
197 04-06-2019 16:20:00 30.4 C 50 % 18.8 C
198 04-06-2019 16:25:00 30.5 C 48 % 18.24 C
199 04-06-2019 16:30:00 30.4 C 50 % 18.8 C
200 04-06-2019 16:35:00 30.6 C 52 % 19.62 C
Sensor: Nr:Datum:Temp:Feuchte:Taupunkt:
Aussen-T/F 201 04-06-2019 16:40:00 30.9 C 48 % 18.61 C
202 04-06-2019 16:45:00 31.2 C 46 % 18.2 C
203 04-06-2019 16:50:00 31.3 C 47 % 18.63 C
204 04-06-2019 16:55:00 31.6 C 46 % 18.56 C
205 04-06-2019 17:00:00 31.7 C 44 % 17.94 C
206 04-06-2019 17:05:00 31.8 C 45 % 18.39 C
207 04-06-2019 17:10:00 31.8 C 46 % 18.74 C
208 04-06-2019 17:15:00 31.9 C 44 % 18.12 C
209 04-06-2019 17:20:00 32 C 44 % 18.21 C
210 04-06-2019 17:25:00 32.1 C 45 % 18.66 C
211 04-06-2019 17:30:00 32.1 C 44 % 18.3 C
212 04-06-2019 17:35:00 32.1 C 43 % 17.94 C
213 04-06-2019 17:40:00 31.9 C 45 % 18.48 C
214 04-06-2019 17:45:00 31.9 C 44 % 18.12 C
215 04-06-2019 17:50:00 31.9 C 45 % 18.48 C
216 04-06-2019 17:55:00 31.9 C 44 % 18.12 C
217 04-06-2019 18:00:00 32.1 C 45 % 18.66 C
218 04-06-2019 18:05:00 32.1 C 43 % 17.94 C
219 04-06-2019 18:10:00 31.9 C 43 % 17.76 C
220 04-06-2019 18:15:00 31.8 C 48 % 19.43 C
221 04-06-2019 18:20:00 31.8 C 46 % 18.74 C
222 04-06-2019 18:25:00 31.6 C 45 % 18.21 C
223 04-06-2019 18:30:00 31.3 C 45 % 17.94 C
224 04-06-2019 18:35:00 31.1 C 45 % 17.76 C
225 04-06-2019 18:40:00 30.8 C 49 % 18.85 C
Sensor: Nr:Datum:Temp:Feuchte:Taupunkt:
Aussen-T/F 226 04-06-2019 18:45:00 30.5 C 50 % 18.9 C
227 04-06-2019 18:50:00 30.1 C 54 % 19.76 C
228 04-06-2019 18:55:00 29.8 C 56 % 20.07 C
229 04-06-2019 19:00:00 29.8 C 49 % 17.93 C
230 04-06-2019 19:05:00 30.1 C 55 % 20.06 C
231 04-06-2019 19:10:00 30.2 C 53 % 19.56 C
232 04-06-2019 19:15:00 30.2 C 54 % 19.86 C
233 04-06-2019 19:20:00 29.9 C 55 % 19.88 C
234 04-06-2019 19:25:00 29.5 C 51 % 18.3 C
235 04-06-2019 19:30:00 29.2 C 57 % 19.8 C
236 04-06-2019 19:35:00 28.8 C 58 % 19.71 C
237 04-06-2019 19:40:00 28.5 C 54 % 18.29 C
238 04-06-2019 19:45:00 28.4 C 59 % 19.61 C
239 04-06-2019 19:50:00 28.3 C 60 % 19.79 C
240 04-06-2019 19:55:00 28.1 C 54 % 17.92 C
241 04-06-2019 20:00:00 28.1 C 59 % 19.33 C
242 04-06-2019 20:05:00 27.9 C 60 % 19.41 C
243 04-06-2019 20:10:00 27.6 C 61 % 19.4 C
244 04-06-2019 20:15:00 27.3 C 61 % 19.12 C
245 04-06-2019 20:20:00 27 C 62 % 19.1 C
246 04-06-2019 20:25:00 26.7 C 62 % 18.81 C
247 04-06-2019 20:30:00 26.4 C 63 % 18.79 C
248 04-06-2019 20:35:00 26.1 C 64 % 18.76 C
249 04-06-2019 20:40:00 25.8 C 64 % 18.47 C
250 04-06-2019 20:45:00 25.4 C 64 % 18.09 C
Sensor: Nr:Datum:Temp:Feuchte:Taupunkt:
Aussen-T/F 251 04-06-2019 20:50:00 25.1 C 65 % 18.06 C
252 04-06-2019 20:55:00 24.8 C 66 % 18.01 C
253 04-06-2019 21:00:00 24.5 C 66 % 17.73 C
254 04-06-2019 21:05:00 24.2 C 66 % 17.45 C
255 04-06-2019 21:10:00 24 C 66 % 17.26 C
256 04-06-2019 21:15:00 23.8 C 66 % 17.07 C
257 04-06-2019 21:20:00 23.6 C 67 % 17.11 C
258 04-06-2019 21:25:00 23.4 C 67 % 16.92 C
259 04-06-2019 21:30:00 23.2 C 68 % 16.97 C
260 04-06-2019 21:35:00 23.1 C 69 % 17.1 C
261 04-06-2019 21:40:00 22.9 C 69 % 16.91 C
262 04-06-2019 21:45:00 22.7 C 69 % 16.72 C
263 04-06-2019 21:50:00 22.6 C 69 % 16.62 C
264 04-06-2019 21:55:00 22.4 C 70 % 16.66 C
265 04-06-2019 22:00:00 22.3 C 71 % 16.79 C
266 04-06-2019 22:05:00 22.3 C 71 % 16.79 C
267 04-06-2019 22:10:00 22.2 C 70 % 16.47 C
268 04-06-2019 22:15:00 22.1 C 70 % 16.37 C
269 04-06-2019 22:20:00 22.1 C 71 % 16.6 C
270 04-06-2019 22:25:00 22 C 70 % 16.28 C
271 04-06-2019 22:30:00 21.9 C 72 % 16.62 C
272 04-06-2019 22:35:00 21.9 C 71 % 16.4 C
273 04-06-2019 22:40:00 21.9 C 72 % 16.62 C
274 04-06-2019 22:45:00 21.9 C 70 % 16.18 C
275 04-06-2019 22:50:00 21.9 C 70 % 16.18 C
Sensor: Nr:Datum:Temp:Feuchte:Taupunkt:
Aussen-T/F 276 04-06-2019 22:55:00 21.8 C 70 % 16.09 C
277 04-06-2019 23:00:00 21.9 C 71 % 16.4 C
278 04-06-2019 23:05:00 22 C 66 % 15.36 C
279 04-06-2019 23:10:00 22.4 C 68 % 16.2 C
280 04-06-2019 23:15:00 22.7 C 67 % 16.26 C
281 04-06-2019 23:20:00 22.7 C 65 % 15.78 C
282 04-06-2019 23:25:00 22.8 C 63 % 15.39 C
283 04-06-2019 23:30:00 22.9 C 63 % 15.48 C
284 04-06-2019 23:35:00 23.1 C 64 % 15.92 C
285 04-06-2019 23:40:00 23 C 65 % 16.07 C
286 04-06-2019 23:45:00 22.9 C 65 % 15.97 C
287 04-06-2019 23:50:00 22.9 C 61 % 14.98 C
288 04-06-2019 23:55:00 23.2 C 60 % 15.01 C
289 05-06-2019 00:00:00 23.4 C 64 % 16.2 C
290 05-06-2019 00:05:00 23.4 C 63 % 15.96 C
291 05-06-2019 00:10:00 23.3 C 62 % 15.61 C
292 05-06-2019 00:15:00 23.6 C 58 % 14.86 C
293 05-06-2019 00:20:00 24 C 60 % 15.76 C
294 05-06-2019 00:25:00 24 C 61 % 16.02 C
295 05-06-2019 00:30:00 23.8 C 62 % 16.08 C
296 05-06-2019 00:35:00 23.6 C 62 % 15.89 C
297 05-06-2019 00:40:00 23.2 C 64 % 16.01 C
298 05-06-2019 00:45:00 22.7 C 66 % 16.02 C
299 05-06-2019 00:50:00 22.3 C 67 % 15.88 C
300 05-06-2019 00:55:00 22.1 C 67 % 15.69 C
Sensor: Nr:Datum:Temp:Feuchte:Taupunkt:
Aussen-T/F 301 05-06-2019 01:00:00 21.8 C 67 % 15.4 C
302 05-06-2019 01:05:00 21.7 C 68 % 15.54 C
303 05-06-2019 01:10:00 21.6 C 70 % 15.89 C
304 05-06-2019 01:15:00 21.4 C 69 % 15.48 C
305 05-06-2019 01:20:00 21.3 C 69 % 15.38 C
306 05-06-2019 01:25:00 21.2 C 71 % 15.73 C
307 05-06-2019 01:30:00 21.2 C 70 % 15.51 C
308 05-06-2019 01:35:00 21.2 C 70 % 15.51 C
309 05-06-2019 01:40:00 21.2 C 71 % 15.73 C
310 05-06-2019 01:45:00 21.2 C 71 % 15.73 C
311 05-06-2019 01:50:00 21.1 C 72 % 15.86 C
312 05-06-2019 01:55:00 21.1 C 71 % 15.64 C
313 05-06-2019 02:00:00 21 C 72 % 15.76 C
314 05-06-2019 02:05:00 21 C 72 % 15.76 C
315 05-06-2019 02:10:00 20.9 C 73 % 15.88 C
316 05-06-2019 02:15:00 20.8 C 73 % 15.78 C
317 05-06-2019 02:20:00 20.7 C 74 % 15.9 C
318 05-06-2019 02:25:00 20.6 C 75 % 16.01 C
319 05-06-2019 02:30:00 20.6 C 75 % 16.01 C
320 05-06-2019 02:35:00 20.4 C 75 % 15.82 C
321 05-06-2019 02:40:00 20.3 C 75 % 15.72 C
322 05-06-2019 02:45:00 20.3 C 75 % 15.72 C
323 05-06-2019 02:50:00 20.2 C 75 % 15.63 C
324 05-06-2019 02:55:00 20.1 C 76 % 15.74 C
325 05-06-2019 03:00:00 19.9 C 76 % 15.54 C
Sensor: Nr:Datum:Temp:Feuchte:Taupunkt:
Aussen-T/F 326 05-06-2019 03:05:00 19.7 C 76 % 15.35 C
327 05-06-2019 03:10:00 19.5 C 77 % 15.36 C
328 05-06-2019 03:15:00 19.3 C 77 % 15.17 C
329 05-06-2019 03:20:00 19.2 C 78 % 15.27 C
330 05-06-2019 03:25:00 19.2 C 78 % 15.27 C
331 05-06-2019 03:30:00 19.2 C 78 % 15.27 C
332 05-06-2019 03:35:00 19.2 C 78 % 15.27 C
333 05-06-2019 03:40:00 19.2 C 79 % 15.47 C
334 05-06-2019 03:45:00 19.2 C 79 % 15.47 C
335 05-06-2019 03:50:00 19.3 C 79 % 15.57 C
336 05-06-2019 03:55:00 19.3 C 79 % 15.57 C
337 05-06-2019 04:00:00 19.3 C 79 % 15.57 C
338 05-06-2019 04:05:00 19.3 C 80 % 15.76 C
339 05-06-2019 04:10:00 19.3 C 79 % 15.57 C
340 05-06-2019 04:15:00 19.3 C 80 % 15.76 C
341 05-06-2019 04:20:00 19.2 C 80 % 15.67 C
342 05-06-2019 04:25:00 19 C 80 % 15.47 C
343 05-06-2019 04:30:00 18.8 C 79 % 15.08 C
344 05-06-2019 04:35:00 18.7 C 81 % 15.37 C
345 05-06-2019 04:40:00 18.5 C 81 % 15.18 C
346 05-06-2019 04:45:00 18.3 C 81 % 14.98 C
347 05-06-2019 04:50:00 18.1 C 81 % 14.79 C
348 05-06-2019 04:55:00 17.9 C 82 % 14.78 C
349 05-06-2019 05:00:00 17.8 C 82 % 14.69 C
350 05-06-2019 05:05:00 17.7 C 83 % 14.78 C
Sensor: Nr:Datum:Temp:Feuchte:Taupunkt:
Aussen-T/F 351 05-06-2019 05:10:00 17.6 C 83 % 14.68 C
352 05-06-2019 05:15:00 17.5 C 83 % 14.58 C
353 05-06-2019 05:20:00 17.4 C 83 % 14.48 C
354 05-06-2019 05:25:00 17.4 C 84 % 14.67 C
355 05-06-2019 05:30:00 17.4 C 84 % 14.67 C
356 05-06-2019 05:35:00 17.3 C 84 % 14.57 C
357 05-06-2019 05:40:00 17.3 C 85 % 14.76 C
358 05-06-2019 05:45:00 17.3 C 85 % 14.76 C
359 05-06-2019 05:50:00 17.3 C 85 % 14.76 C
360 05-06-2019 05:55:00 17.3 C 85 % 14.76 C
361 05-06-2019 06:00:00 17.4 C 85 % 14.85 C
362 05-06-2019 06:05:00 17.6 C 85 % 15.05 C
363 05-06-2019 06:10:00 17.7 C 85 % 15.15 C
364 05-06-2019 06:15:00 17.7 C 85 % 15.15 C
365 05-06-2019 06:20:00 17.7 C 85 % 15.15 C
366 05-06-2019 06:25:00 17.7 C 85 % 15.15 C
367 05-06-2019 06:30:00 17.7 C 85 % 15.15 C
368 05-06-2019 06:35:00 17.7 C 86 % 15.33 C
369 05-06-2019 06:40:00 17.7 C 86 % 15.33 C
370 05-06-2019 06:45:00 17.7 C 85 % 15.15 C
371 05-06-2019 06:50:00 17.8 C 85 % 15.25 C
372 05-06-2019 06:55:00 17.9 C 86 % 15.53 C
373 05-06-2019 07:00:00 17.9 C 86 % 15.53 C
374 05-06-2019 07:05:00 17.9 C 86 % 15.53 C
375 05-06-2019 07:10:00 17.9 C 86 % 15.53 C
Sensor: Nr:Datum:Temp:Feuchte:Taupunkt:
Aussen-T/F 376 05-06-2019 07:15:00 17.9 C 86 % 15.53 C
377 05-06-2019 07:20:00 17.9 C 87 % 15.71 C
378 05-06-2019 07:25:00 17.9 C 86 % 15.53 C
379 05-06-2019 07:30:00 18 C 87 % 15.8 C
380 05-06-2019 07:35:00 18 C 87 % 15.8 C
381 05-06-2019 07:40:00 18.1 C 87 % 15.9 C
382 05-06-2019 07:45:00 18.1 C 87 % 15.9 C
383 05-06-2019 07:50:00 18.1 C 87 % 15.9 C
384 05-06-2019 07:55:00 18.1 C 87 % 15.9 C
385 05-06-2019 08:00:00 18.1 C 87 % 15.9 C
386 05-06-2019 08:05:00 18.1 C 88 % 16.08 C
387 05-06-2019 08:10:00 18.2 C 88 % 16.18 C
388 05-06-2019 08:15:00 18.2 C 88 % 16.18 C
389 05-06-2019 08:20:00 18.3 C 88 % 16.28 C
390 05-06-2019 08:25:00 18.3 C 88 % 16.28 C
391 05-06-2019 08:30:00 18.4 C 88 % 16.38 C
392 05-06-2019 08:35:00 18.4 C 88 % 16.38 C
393 05-06-2019 08:40:00 18.5 C 88 % 16.48 C
394 05-06-2019 08:45:00 18.6 C 88 % 16.57 C
395 05-06-2019 08:50:00 18.7 C 88 % 16.67 C
396 05-06-2019 08:55:00 18.8 C 89 % 16.95 C
397 05-06-2019 09:00:00 19.2 C 84 % 16.43 C
398 05-06-2019 09:05:00 19.6 C 83 % 16.63 C
399 05-06-2019 09:10:00 20.1 C 81 % 16.74 C
400 05-06-2019 09:15:00 20.5 C 78 % 16.53 C
Sensor: Nr:Datum:Temp:Feuchte:Taupunkt:
Aussen-T/F 401 05-06-2019 09:20:00 20.8 C 78 % 16.82 C
402 05-06-2019 09:25:00 21.2 C 77 % 17.01 C
403 05-06-2019 09:30:00 21.3 C 76 % 16.9 C
404 05-06-2019 09:35:00 21.6 C 73 % 16.55 C
405 05-06-2019 09:40:00 21.8 C 72 % 16.53 C
406 05-06-2019 09:45:00 22 C 72 % 16.72 C
407 05-06-2019 09:50:00 22.1 C 72 % 16.82 C
408 05-06-2019 09:55:00 22.1 C 71 % 16.6 C
409 05-06-2019 10:00:00 22.1 C 71 % 16.6 C
410 05-06-2019 10:05:00 22.1 C 73 % 17.03 C
411 05-06-2019 10:10:00 22.2 C 72 % 16.91 C
412 05-06-2019 10:15:00 22.3 C 73 % 17.23 C
413 05-06-2019 10:20:00 22.5 C 71 % 16.98 C
414 05-06-2019 10:25:00 22.6 C 72 % 17.3 C
415 05-06-2019 10:30:00 22.8 C 72 % 17.49 C
416 05-06-2019 10:35:00 23.1 C 71 % 17.55 C
417 05-06-2019 10:40:00 23.2 C 70 % 17.42 C
418 05-06-2019 10:45:00 23.3 C 68 % 17.06 C
419 05-06-2019 10:50:00 23.3 C 67 % 16.83 C
420 05-06-2019 10:55:00 23.3 C 67 % 16.83 C
421 05-06-2019 11:00:00 23.4 C 69 % 17.39 C
422 05-06-2019 11:05:00 23.4 C 66 % 16.69 C
423 05-06-2019 11:10:00 23.4 C 66 % 16.69 C
424 05-06-2019 11:15:00 23.4 C 66 % 16.69 C
425 05-06-2019 11:20:00 23.5 C 68 % 17.25 C
Sensor: Nr:Datum:Temp:Feuchte:Taupunkt:
Aussen-T/F 426 05-06-2019 11:25:00 23.6 C 68 % 17.35 C
427 05-06-2019 11:30:00 23.7 C 67 % 17.21 C
428 05-06-2019 11:35:00 23.8 C 66 % 17.07 C
429 05-06-2019 11:40:00 23.8 C 65 % 16.83 C
430 05-06-2019 11:45:00 23.8 C 64 % 16.58 C
431 05-06-2019 11:50:00 23.9 C 66 % 17.16 C
432 05-06-2019 11:55:00 24 C 65 % 17.01 C
433 05-06-2019 12:00:00 24.2 C 65 % 17.2 C
434 05-06-2019 12:05:00 24.3 C 63 % 16.81 C
435 05-06-2019 12:10:00 24.3 C 62 % 16.55 C
436 05-06-2019 12:15:00 24.3 C 63 % 16.81 C
437 05-06-2019 12:20:00 24.3 C 63 % 16.81 C
438 05-06-2019 12:25:00 24.3 C 63 % 16.81 C
439 05-06-2019 12:30:00 24.4 C 65 % 17.39 C
440 05-06-2019 12:35:00 24.3 C 63 % 16.81 C
441 05-06-2019 12:40:00 24.3 C 63 % 16.81 C
442 05-06-2019 12:45:00 24.3 C 64 % 17.05 C
443 05-06-2019 12:50:00 24.4 C 63 % 16.9 C
444 05-06-2019 12:55:00 24.7 C 62 % 16.93 C
445 05-06-2019 13:00:00 25 C 61 % 16.96 C
446 05-06-2019 13:05:00 25.3 C 60 % 16.98 C
447 05-06-2019 13:10:00 25.6 C 61 % 17.52 C
448 05-06-2019 13:15:00 25.8 C 60 % 17.45 C
449 05-06-2019 13:20:00 25.9 C 59 % 17.27 C
450 05-06-2019 13:25:00 26 C 61 % 17.9 C
Sensor: Nr:Datum:Temp:Feuchte:Taupunkt:
Aussen-T/F 451 05-06-2019 13:30:00 26.1 C 61 % 17.99 C
452 05-06-2019 13:35:00 26.1 C 60 % 17.73 C
453 05-06-2019 13:40:00 26.2 C 59 % 17.55 C
454 05-06-2019 13:45:00 26.3 C 60 % 17.91 C
455 05-06-2019 13:50:00 26.4 C 60 % 18.01 C
456 05-06-2019 13:55:00 26.4 C 60 % 18.01 C
457 05-06-2019 14:00:00 26.5 C 58 % 17.56 C
458 05-06-2019 14:05:00 26.7 C 56 % 17.19 C
459 05-06-2019 14:10:00 26.8 C 57 % 17.57 C
460 05-06-2019 14:15:00 26.9 C 56 % 17.38 C
461 05-06-2019 14:20:00 27.1 C 58 % 18.12 C
462 05-06-2019 14:25:00 27.2 C 57 % 17.94 C
463 05-06-2019 14:30:00 27.3 C 57 % 18.03 C
464 05-06-2019 14:35:00 27.4 C 55 % 17.56 C
465 05-06-2019 14:40:00 27.5 C 56 % 17.94 C
466 05-06-2019 14:45:00 27.7 C 56 % 18.12 C
467 05-06-2019 14:50:00 27.9 C 54 % 17.73 C
468 05-06-2019 14:55:00 28.1 C 53 % 17.62 C
469 05-06-2019 15:00:00 28.2 C 54 % 18.01 C
470 05-06-2019 15:05:00 28.3 C 54 % 18.1 C
471 05-06-2019 15:10:00 28.6 C 53 % 18.08 C
472 05-06-2019 15:15:00 28.8 C 51 % 17.65 C
473 05-06-2019 15:20:00 29 C 50 % 17.52 C
474 05-06-2019 15:25:00 29.3 C 49 % 17.48 C
475 05-06-2019 15:30:00 29.4 C 49 % 17.57 C
Sensor: Nr:Datum:Temp:Feuchte:Taupunkt:
Aussen-T/F 476 05-06-2019 15:35:00 29.6 C 50 % 18.07 C
477 05-06-2019 15:40:00 30 C 50 % 18.44 C
478 05-06-2019 15:45:00 30.5 C 50 % 18.9 C
479 05-06-2019 15:50:00 31 C 42 % 16.58 C
480 05-06-2019 15:55:00 31.3 C 43 % 17.22 C
481 05-06-2019 16:00:00 31.6 C 39 % 15.95 C
482 05-06-2019 16:05:00 31.5 C 40 % 16.26 C
483 05-06-2019 16:10:00 31.4 C 40 % 16.17 C
484 05-06-2019 16:15:00 31.7 C 43 % 17.58 C
485 05-06-2019 16:20:00 31.9 C 43 % 17.76 C
486 05-06-2019 16:25:00 32.2 C 42 % 17.65 C
487 05-06-2019 16:30:00 32.2 C 41 % 17.27 C
488 05-06-2019 16:35:00 32 C 42 % 17.48 C
489 05-06-2019 16:40:00 31.4 C 45 % 18.03 C
490 05-06-2019 16:45:00 30.6 C 41 % 15.85 C
491 05-06-2019 16:50:00 29.9 C 42 % 15.6 C
492 05-06-2019 16:55:00 29.8 C 43 % 15.87 C
493 05-06-2019 17:00:00 29.9 C 50 % 18.35 C
494 05-06-2019 17:05:00 29.8 C 55 % 19.78 C
495 05-06-2019 17:10:00 29.8 C 54 % 19.49 C
496 05-06-2019 17:15:00 29.8 C 47 % 17.27 C
497 05-06-2019 17:20:00 29.9 C 48 % 17.7 C
498 05-06-2019 17:25:00 29.9 C 49 % 18.02 C
499 05-06-2019 17:30:00 30.2 C 42 % 15.86 C
500 05-06-2019 17:35:00 30.6 C 48 % 18.33 C
Sensor: Nr:Datum:Temp:Feuchte:Taupunkt:
Aussen-T/F 501 05-06-2019 17:40:00 31.3 C 40 % 16.08 C
502 05-06-2019 17:45:00 31.4 C 41 % 16.56 C
503 05-06-2019 17:50:00 31.4 C 43 % 17.31 C
504 05-06-2019 17:55:00 31.2 C 44 % 17.49 C
505 05-06-2019 18:00:00 30.8 C 48 % 18.52 C
506 05-06-2019 18:05:00 30.3 C 52 % 19.34 C
507 05-06-2019 18:10:00 29.7 C 53 % 19.09 C
508 05-06-2019 18:15:00 29.1 C 54 % 18.84 C
509 05-06-2019 18:20:00 28.4 C 56 % 18.77 C
510 05-06-2019 18:25:00 27.8 C 57 % 18.5 C
511 05-06-2019 18:30:00 27.3 C 58 % 18.31 C
512 05-06-2019 18:35:00 27.1 C 60 % 18.66 C
513 05-06-2019 18:40:00 27.3 C 62 % 19.38 C
514 05-06-2019 18:45:00 27.8 C 59 % 19.05 C
515 05-06-2019 18:50:00 28.4 C 59 % 19.61 C
516 05-06-2019 18:55:00 29.3 C 56 % 19.61 C
517 05-06-2019 19:00:00 29.8 C 49 % 17.93 C
518 05-06-2019 19:05:00 30.2 C 54 % 19.86 C
519 05-06-2019 19:10:00 30.4 C 56 % 20.63 C
520 05-06-2019 19:15:00 30.3 C 55 % 20.25 C
521 05-06-2019 19:20:00 30.2 C 54 % 19.86 C
522 05-06-2019 19:25:00 30.1 C 57 % 20.64 C
523 05-06-2019 19:30:00 29.9 C 56 % 20.17 C
524 05-06-2019 19:35:00 29.7 C 55 % 19.69 C
525 05-06-2019 19:40:00 29.4 C 55 % 19.41 C
Sensor: Nr:Datum:Temp:Feuchte:Taupunkt:
Aussen-T/F 526 05-06-2019 19:45:00 29.2 C 55 % 19.23 C
527 05-06-2019 19:50:00 28.9 C 55 % 18.95 C
528 05-06-2019 19:55:00 28.7 C 55 % 18.76 C
529 05-06-2019 20:00:00 28.5 C 58 % 19.43 C
530 05-06-2019 20:05:00 28.4 C 57 % 19.06 C
531 05-06-2019 20:10:00 28.4 C 57 % 19.06 C
532 05-06-2019 20:15:00 28.3 C 57 % 18.96 C
533 05-06-2019 20:20:00 28.2 C 56 % 18.59 C
534 05-06-2019 20:25:00 28 C 56 % 18.4 C
535 05-06-2019 20:30:00 27.7 C 55 % 17.84 C
536 05-06-2019 20:35:00 27.4 C 55 % 17.56 C
537 05-06-2019 20:40:00 27.1 C 55 % 17.28 C
538 05-06-2019 20:45:00 26.7 C 57 % 17.47 C
539 05-06-2019 20:50:00 26.2 C 57 % 17.01 C
540 05-06-2019 20:55:00 25.8 C 59 % 17.18 C
541 05-06-2019 21:00:00 25.3 C 60 % 16.98 C
542 05-06-2019 21:05:00 24.8 C 61 % 16.77 C
543 05-06-2019 21:10:00 24.4 C 63 % 16.9 C
544 05-06-2019 21:15:00 23.9 C 64 % 16.68 C
545 05-06-2019 21:20:00 23.6 C 66 % 16.88 C
546 05-06-2019 21:25:00 23.3 C 68 % 17.06 C
547 05-06-2019 21:30:00 23.1 C 70 % 17.33 C
548 05-06-2019 21:35:00 22.9 C 72 % 17.58 C
549 05-06-2019 21:40:00 22.7 C 73 % 17.61 C
550 05-06-2019 21:45:00 22.6 C 74 % 17.73 C
Sensor: Nr:Datum:Temp:Feuchte:Taupunkt:
Aussen-T/F 551 05-06-2019 21:50:00 22.4 C 74 % 17.54 C
552 05-06-2019 21:55:00 22.3 C 75 % 17.65 C
553 05-06-2019 22:00:00 22.2 C 75 % 17.56 C
554 05-06-2019 22:05:00 22.1 C 76 % 17.67 C
555 05-06-2019 22:10:00 21.9 C 75 % 17.27 C
556 05-06-2019 22:15:00 21.8 C 75 % 17.17 C
557 05-06-2019 22:20:00 21.8 C 75 % 17.17 C
558 05-06-2019 22:25:00 21.7 C 75 % 17.07 C
559 05-06-2019 22:30:00 21.6 C 76 % 17.19 C
560 05-06-2019 22:35:00 21.4 C 76 % 16.99 C
561 05-06-2019 22:40:00 21.4 C 76 % 16.99 C
562 05-06-2019 22:45:00 21.3 C 76 % 16.9 C
563 05-06-2019 22:50:00 21.2 C 77 % 17.01 C
564 05-06-2019 22:55:00 21.1 C 76 % 16.7 C
565 05-06-2019 23:00:00 21 C 76 % 16.61 C
566 05-06-2019 23:05:00 20.9 C 76 % 16.51 C
567 05-06-2019 23:10:00 20.9 C 77 % 16.72 C
568 05-06-2019 23:15:00 20.8 C 77 % 16.62 C
569 05-06-2019 23:20:00 20.8 C 78 % 16.82 C
570 05-06-2019 23:25:00 20.8 C 77 % 16.62 C
571 05-06-2019 23:30:00 20.8 C 77 % 16.62 C
572 05-06-2019 23:35:00 20.8 C 77 % 16.62 C
573 05-06-2019 23:40:00 20.8 C 77 % 16.62 C
574 05-06-2019 23:45:00 20.8 C 78 % 16.82 C
575 05-06-2019 23:50:00 20.8 C 78 % 16.82 C
Sensor: Nr:Datum:Temp:Feuchte:Taupunkt:
Aussen-T/F 576 05-06-2019 23:55:00 20.8 C 79 % 17.02 C

Legende:
   Min
   Max


Maximal/Minimal-Werte vom 04.06.2019 - 05.06.2019

Sensor Min Max Avg
Temp
(Aussen-T/F)
13.1 °C
04-06-2019  05:30:00
32.2 °C
05-06-2019  16:25:00
22.48 °C
Feuchte
(Aussen-T/F)
39 %
05-06-2019  16:00:00
96 %
04-06-2019  06:50:00
70.73 %
Taupunkt
(Aussen-T/F)
12.16 C
04-06-2019  05:30:00
20.64 C
05-06-2019  19:25:00
16.37 C

Die Daten stammen von einer Davis Vantage Pro 2 Wetter-Station und werden unter Linux mit der Software wview2wettercgi und aufbereitet. Alle Angaben erfolgen ohne Gewähr für ihre Vollständigkeit oder Richtigkeit.
Kontakt: Rainer Krienke krienke@uni-koblenz.de . Meine Webseiten an der Uni Koblenz oder privat.
Version: $Revision: 0.78 $